sensor_id;sensor_type;location;lat;lon;timestamp;temperature;humidity
10247;DHT22;5168;47.854;7.944;2023-05-01T00:04:49;9.00;99.90
10247;DHT22;5168;47.854;7.944;2023-05-01T00:07:14;8.50;99.90
10247;DHT22;5168;47.854;7.944;2023-05-01T00:09:40;8.50;99.90
10247;DHT22;5168;47.854;7.944;2023-05-01T00:12:06;8.60;99.90
10247;DHT22;5168;47.854;7.944;2023-05-01T00:21:49;8.80;99.90
10247;DHT22;5168;47.854;7.944;2023-05-01T00:24:17;8.80;99.90
10247;DHT22;5168;47.854;7.944;2023-05-01T00:26:43;8.50;99.90
10247;DHT22;5168;47.854;7.944;2023-05-01T00:29:09;7.90;99.90
10247;DHT22;5168;47.854;7.944;2023-05-01T00:31:35;8.40;99.90
10247;DHT22;5168;47.854;7.944;2023-05-01T00:34:01;8.60;99.90
10247;DHT22;5168;47.854;7.944;2023-05-01T00:41:18;7.80;99.90
10247;DHT22;5168;47.854;7.944;2023-05-01T00:43:44;8.40;99.90
10247;DHT22;5168;47.854;7.944;2023-05-01T00:46:09;8.20;99.90
10247;DHT22;5168;47.854;7.944;2023-05-01T00:48:35;8.50;99.90
10247;DHT22;5168;47.854;7.944;2023-05-01T00:51:04;8.60;99.90
10247;DHT22;5168;47.854;7.944;2023-05-01T00:53:31;8.60;99.90
10247;DHT22;5168;47.854;7.944;2023-05-01T00:55:57;8.10;99.90
10247;DHT22;5168;47.854;7.944;2023-05-01T00:58:23;8.90;99.90
10247;DHT22;5168;47.854;7.944;2023-05-01T01:00:48;8.30;99.90
10247;DHT22;5168;47.854;7.944;2023-05-01T01:03:14;8.60;99.90
10247;DHT22;5168;47.854;7.944;2023-05-01T01:08:52;8.10;99.90
10247;DHT22;5168;47.854;7.944;2023-05-01T01:11:39;8.20;99.90
10247;DHT22;5168;47.854;7.944;2023-05-01T01:14:25;6.00;99.90
10247;DHT22;5168;47.854;7.944;2023-05-01T01:19:59;8.40;99.90
10247;DHT22;5168;47.854;7.944;2023-05-01T01:22:28;8.10;99.90
10247;DHT22;5168;47.854;7.944;2023-05-01T01:33:23;8.00;99.90
10247;DHT22;5168;47.854;7.944;2023-05-01T01:35:55;8.30;99.90
10247;DHT22;5168;47.854;7.944;2023-05-01T01:39:02;8.40;99.90
10247;DHT22;5168;47.854;7.944;2023-05-01T01:41:33;8.20;99.90
10247;DHT22;5168;47.854;7.944;2023-05-01T01:44:13;8.40;99.90
10247;DHT22;5168;47.854;7.944;2023-05-01T01:46:41;8.10;99.90
10247;DHT22;5168;47.854;7.944;2023-05-01T01:49:12;7.70;99.90
10247;DHT22;5168;47.854;7.944;2023-05-01T01:51:41;8.50;99.90
10247;DHT22;5168;47.854;7.944;2023-05-01T01:54:08;8.20;99.90
10247;DHT22;5168;47.854;7.944;2023-05-01T01:56:34;8.50;99.90
10247;DHT22;5168;47.854;7.944;2023-05-01T01:59:04;8.20;99.90
10247;DHT22;5168;47.854;7.944;2023-05-01T02:01:31;8.00;99.90
10247;DHT22;5168;47.854;7.944;2023-05-01T02:03:59;8.40;99.90
10247;DHT22;5168;47.854;7.944;2023-05-01T02:06:27;7.80;99.90
10247;DHT22;5168;47.854;7.944;2023-05-01T02:11:20;8.20;99.90
10247;DHT22;5168;47.854;7.944;2023-05-01T02:13:48;8.20;99.90
10247;DHT22;5168;47.854;7.944;2023-05-01T02:16:14;7.70;99.90
10247;DHT22;5168;47.854;7.944;2023-05-01T02:18:41;8.40;99.90
10247;DHT22;5168;47.854;7.944;2023-05-01T02:21:07;8.10;99.90
10247;DHT22;5168;47.854;7.944;2023-05-01T02:26:02;8.10;99.90
10247;DHT22;5168;47.854;7.944;2023-05-01T02:28:29;7.90;99.90
10247;DHT22;5168;47.854;7.944;2023-05-01T02:30:55;8.20;99.90
10247;DHT22;5168;47.854;7.944;2023-05-01T02:33:21;8.70;99.90
10247;DHT22;5168;47.854;7.944;2023-05-01T02:35:47;8.20;99.90
10247;DHT22;5168;47.854;7.944;2023-05-01T02:38:14;8.30;99.90
10247;DHT22;5168;47.854;7.944;2023-05-01T02:40:48;8.00;99.90
10247;DHT22;5168;47.854;7.944;2023-05-01T02:43:20;8.10;99.90
10247;DHT22;5168;47.854;7.944;2023-05-01T02:45:47;8.30;99.90
10247;DHT22;5168;47.854;7.944;2023-05-01T02:48:17;8.00;99.90
10247;DHT22;5168;47.854;7.944;2023-05-01T02:50:43;8.00;99.90
10247;DHT22;5168;47.854;7.944;2023-05-01T02:53:11;8.10;99.90
10247;DHT22;5168;47.854;7.944;2023-05-01T02:55:38;7.80;99.90
10247;DHT22;5168;47.854;7.944;2023-05-01T02:58:03;7.80;99.90
10247;DHT22;5168;47.854;7.944;2023-05-01T03:05:21;8.00;99.90
10247;DHT22;5168;47.854;7.944;2023-05-01T03:07:47;8.10;99.90
10247;DHT22;5168;47.854;7.944;2023-05-01T03:12:38;7.80;99.90
10247;DHT22;5168;47.854;7.944;2023-05-01T03:15:05;8.00;99.90
10247;DHT22;5168;47.854;7.944;2023-05-01T03:17:30;7.60;99.90
10247;DHT22;5168;47.854;7.944;2023-05-01T03:22:22;7.40;99.90
10247;DHT22;5168;47.854;7.944;2023-05-01T03:24:47;8.00;99.90
10247;DHT22;5168;47.854;7.944;2023-05-01T03:27:14;7.90;99.90
10247;DHT22;5168;47.854;7.944;2023-05-01T03:29:39;8.20;99.90
10247;DHT22;5168;47.854;7.944;2023-05-01T03:32:05;8.10;99.90
10247;DHT22;5168;47.854;7.944;2023-05-01T03:39:23;8.00;99.90
10247;DHT22;5168;47.854;7.944;2023-05-01T03:41:48;7.70;99.90
10247;DHT22;5168;47.854;7.944;2023-05-01T03:44:14;7.80;99.90
10247;DHT22;5168;47.854;7.944;2023-05-01T03:56:24;7.60;99.90
10247;DHT22;5168;47.854;7.944;2023-05-01T03:58:51;7.70;99.90
10247;DHT22;5168;47.854;7.944;2023-05-01T04:01:17;7.50;99.90
10247;DHT22;5168;47.854;7.944;2023-05-01T04:06:09;7.60;99.90
10247;DHT22;5168;47.854;7.944;2023-05-01T04:15:52;7.70;99.90
10247;DHT22;5168;47.854;7.944;2023-05-01T04:18:20;7.40;99.90
10247;DHT22;5168;47.854;7.944;2023-05-01T04:20:45;7.20;99.90
10247;DHT22;5168;47.854;7.944;2023-05-01T04:25:37;7.30;99.90
10247;DHT22;5168;47.854;7.944;2023-05-01T04:28:02;7.60;99.90
10247;DHT22;5168;47.854;7.944;2023-05-01T04:30:32;7.40;99.90
10247;DHT22;5168;47.854;7.944;2023-05-01T04:35:24;7.40;99.90
10247;DHT22;5168;47.854;7.944;2023-05-01T04:50:00;7.70;99.90
10247;DHT22;5168;47.854;7.944;2023-05-01T04:52:25;7.30;99.90
10247;DHT22;5168;47.854;7.944;2023-05-01T04:54:51;7.10;99.90
10247;DHT22;5168;47.854;7.944;2023-05-01T05:02:09;7.50;99.90
10247;DHT22;5168;47.854;7.944;2023-05-01T05:04:34;7.40;99.90
10247;DHT22;5168;47.854;7.944;2023-05-01T05:09:26;7.50;99.90
10247;DHT22;5168;47.854;7.944;2023-05-01T05:14:17;7.30;99.90
10247;DHT22;5168;47.854;7.944;2023-05-01T05:16:42;7.20;99.90
10247;DHT22;5168;47.854;7.944;2023-05-01T05:19:08;7.50;99.90
10247;DHT22;5168;47.854;7.944;2023-05-01T05:21:34;7.40;99.90
10247;DHT22;5168;47.854;7.944;2023-05-01T05:24:00;8.00;99.90
10247;DHT22;5168;47.854;7.944;2023-05-01T05:26:25;7.60;99.90
10247;DHT22;5168;47.854;7.944;2023-05-01T05:28:51;7.70;99.90
10247;DHT22;5168;47.854;7.944;2023-05-01T05:31:17;7.70;99.90
10247;DHT22;5168;47.854;7.944;2023-05-01T05:38:35;7.50;99.90
10247;DHT22;5168;47.854;7.944;2023-05-01T05:45:57;7.60;99.90
10247;DHT22;5168;47.854;7.944;2023-05-01T05:48:23;7.60;99.90
10247;DHT22;5168;47.854;7.944;2023-05-01T05:50:48;6.90;99.90
10247;DHT22;5168;47.854;7.944;2023-05-01T05:53:19;7.60;99.90
10247;DHT22;5168;47.854;7.944;2023-05-01T05:55:48;7.90;99.90
10247;DHT22;5168;47.854;7.944;2023-05-01T05:58:14;7.80;99.90
10247;DHT22;5168;47.854;7.944;2023-05-01T06:00:45;7.70;99.90
10247;DHT22;5168;47.854;7.944;2023-05-01T06:03:11;8.30;99.90
10247;DHT22;5168;47.854;7.944;2023-05-01T06:05:36;7.80;99.90
10247;DHT22;5168;47.854;7.944;2023-05-01T06:08:02;7.90;99.90
10247;DHT22;5168;47.854;7.944;2023-05-01T06:20:12;7.90;99.90
10247;DHT22;5168;47.854;7.944;2023-05-01T06:22:38;7.60;99.90
10247;DHT22;5168;47.854;7.944;2023-05-01T06:25:04;7.70;99.90
10247;DHT22;5168;47.854;7.944;2023-05-01T06:27:31;7.90;99.90
10247;DHT22;5168;47.854;7.944;2023-05-01T06:29:56;7.70;99.90
10247;DHT22;5168;47.854;7.944;2023-05-01T06:32:22;7.40;99.90
10247;DHT22;5168;47.854;7.944;2023-05-01T06:34:48;7.50;99.90
10247;DHT22;5168;47.854;7.944;2023-05-01T06:44:32;7.80;99.90
10247;DHT22;5168;47.854;7.944;2023-05-01T06:51:52;7.30;99.90
10247;DHT22;5168;47.854;7.944;2023-05-01T06:54:17;7.60;99.90
10247;DHT22;5168;47.854;7.944;2023-05-01T06:56:43;7.80;99.90
10247;DHT22;5168;47.854;7.944;2023-05-01T06:59:08;8.10;99.90
10247;DHT22;5168;47.854;7.944;2023-05-01T07:06:28;7.70;99.90
10247;DHT22;5168;47.854;7.944;2023-05-01T07:08:53;7.80;99.90
10247;DHT22;5168;47.854;7.944;2023-05-01T07:18:37;8.20;99.90
10247;DHT22;5168;47.854;7.944;2023-05-01T07:21:02;8.30;99.90
10247;DHT22;5168;47.854;7.944;2023-05-01T07:23:28;8.10;99.90
10247;DHT22;5168;47.854;7.944;2023-05-01T07:28:20;8.00;99.90
10247;DHT22;5168;47.854;7.944;2023-05-01T07:30:46;8.00;99.90
10247;DHT22;5168;47.854;7.944;2023-05-01T07:35:37;8.20;99.90
10247;DHT22;5168;47.854;7.944;2023-05-01T07:38:03;7.80;99.90
10247;DHT22;5168;47.854;7.944;2023-05-01T07:40:31;7.80;99.90
10247;DHT22;5168;47.854;7.944;2023-05-01T07:42:57;7.60;99.90
10247;DHT22;5168;47.854;7.944;2023-05-01T07:47:48;8.10;99.90
10247;DHT22;5168;47.854;7.944;2023-05-01T07:50:14;8.20;99.90
10247;DHT22;5168;47.854;7.944;2023-05-01T07:52:40;8.20;99.90
10247;DHT22;5168;47.854;7.944;2023-05-01T07:55:05;7.60;99.90
10247;DHT22;5168;47.854;7.944;2023-05-01T07:57:31;7.70;99.90
10247;DHT22;5168;47.854;7.944;2023-05-01T08:00:00;8.10;99.90
10247;DHT22;5168;47.854;7.944;2023-05-01T08:09:44;7.60;99.90
10247;DHT22;5168;47.854;7.944;2023-05-01T08:12:10;7.90;99.90
10247;DHT22;5168;47.854;7.944;2023-05-01T08:14:35;8.00;99.90
10247;DHT22;5168;47.854;7.944;2023-05-01T08:17:01;7.90;99.90
10247;DHT22;5168;47.854;7.944;2023-05-01T08:19:27;7.70;99.90
10247;DHT22;5168;47.854;7.944;2023-05-01T08:21:53;7.60;99.90
10247;DHT22;5168;47.854;7.944;2023-05-01T08:34:03;7.60;99.90
10247;DHT22;5168;47.854;7.944;2023-05-01T08:36:29;7.60;99.90
10247;DHT22;5168;47.854;7.944;2023-05-01T08:38:56;4.90;99.90
10247;DHT22;5168;47.854;7.944;2023-05-01T08:41:22;7.90;99.90
10247;DHT22;5168;47.854;7.944;2023-05-01T08:43:48;7.80;99.90
10247;DHT22;5168;47.854;7.944;2023-05-01T08:46:36;8.10;99.90
10247;DHT22;5168;47.854;7.944;2023-05-01T08:49:04;8.10;99.90
10247;DHT22;5168;47.854;7.944;2023-05-01T08:51:31;8.10;99.90
10247;DHT22;5168;47.854;7.944;2023-05-01T08:54:00;8.20;99.90
10247;DHT22;5168;47.854;7.944;2023-05-01T08:56:28;8.40;99.90
10247;DHT22;5168;47.854;7.944;2023-05-01T08:58:57;8.40;99.90
10247;DHT22;5168;47.854;7.944;2023-05-01T09:03:50;8.50;99.90
10247;DHT22;5168;47.854;7.944;2023-05-01T09:06:17;8.10;99.90
10247;DHT22;5168;47.854;7.944;2023-05-01T09:08:43;8.90;99.90
10247;DHT22;5168;47.854;7.944;2023-05-01T09:11:10;8.80;99.90
10247;DHT22;5168;47.854;7.944;2023-05-01T09:16:04;8.80;99.90
10247;DHT22;5168;47.854;7.944;2023-05-01T09:18:30;8.50;99.90
10247;DHT22;5168;47.854;7.944;2023-05-01T09:20:56;9.10;99.90
10247;DHT22;5168;47.854;7.944;2023-05-01T09:23:22;8.90;99.90
10247;DHT22;5168;47.854;7.944;2023-05-01T09:25:47;8.60;99.90
10247;DHT22;5168;47.854;7.944;2023-05-01T09:28:14;8.70;99.90
10247;DHT22;5168;47.854;7.944;2023-05-01T09:30:40;8.70;99.90
10247;DHT22;5168;47.854;7.944;2023-05-01T09:33:09;9.00;99.90
10247;DHT22;5168;47.854;7.944;2023-05-01T09:36:07;9.10;99.90
10247;DHT22;5168;47.854;7.944;2023-05-01T09:38:42;8.50;99.90
10247;DHT22;5168;47.854;7.944;2023-05-01T09:41:07;8.90;99.90
10247;DHT22;5168;47.854;7.944;2023-05-01T09:46:07;8.70;99.90
10247;DHT22;5168;47.854;7.944;2023-05-01T09:48:37;8.70;99.90
10247;DHT22;5168;47.854;7.944;2023-05-01T09:53:47;9.20;99.90
10247;DHT22;5168;47.854;7.944;2023-05-01T09:56:13;9.10;99.90
10247;DHT22;5168;47.854;7.944;2023-05-01T09:58:39;9.30;99.90
10247;DHT22;5168;47.854;7.944;2023-05-01T10:01:05;9.40;99.90
10247;DHT22;5168;47.854;7.944;2023-05-01T10:03:31;9.90;99.90
10247;DHT22;5168;47.854;7.944;2023-05-01T10:05:58;10.10;99.90
10247;DHT22;5168;47.854;7.944;2023-05-01T10:11:10;10.30;99.90
10247;DHT22;5168;47.854;7.944;2023-05-01T10:13:35;10.50;99.90
10247;DHT22;5168;47.854;7.944;2023-05-01T10:18:35;10.70;99.90
10247;DHT22;5168;47.854;7.944;2023-05-01T10:25:55;11.20;99.90
10247;DHT22;5168;47.854;7.944;2023-05-01T10:28:21;11.40;99.90
10247;DHT22;5168;47.854;7.944;2023-05-01T10:30:49;11.00;99.90
10247;DHT22;5168;47.854;7.944;2023-05-01T10:33:15;11.00;99.90
10247;DHT22;5168;47.854;7.944;2023-05-01T10:35:44;11.40;99.90
10247;DHT22;5168;47.854;7.944;2023-05-01T10:38:18;11.40;99.90
10247;DHT22;5168;47.854;7.944;2023-05-01T10:40:47;11.50;99.90
10247;DHT22;5168;47.854;7.944;2023-05-01T10:43:17;12.00;99.90
10247;DHT22;5168;47.854;7.944;2023-05-01T10:45:43;12.10;99.90
10247;DHT22;5168;47.854;7.944;2023-05-01T10:48:10;12.30;99.90
10247;DHT22;5168;47.854;7.944;2023-05-01T10:53:41;11.80;99.90
10247;DHT22;5168;47.854;7.944;2023-05-01T10:58:57;11.60;99.90
10247;DHT22;5168;47.854;7.944;2023-05-01T11:01:42;11.50;99.90
10247;DHT22;5168;47.854;7.944;2023-05-01T11:09:45;11.30;99.90
10247;DHT22;5168;47.854;7.944;2023-05-01T11:12:13;11.50;99.90
10247;DHT22;5168;47.854;7.944;2023-05-01T11:20:12;12.30;99.90
10247;DHT22;5168;47.854;7.944;2023-05-01T11:22:43;12.00;99.90
10247;DHT22;5168;47.854;7.944;2023-05-01T11:25:25;12.20;99.90
10247;DHT22;5168;47.854;7.944;2023-05-01T11:27:54;12.20;99.90
10247;DHT22;5168;47.854;7.944;2023-05-01T11:30:20;11.30;99.90
10247;DHT22;5168;47.854;7.944;2023-05-01T11:32:47;11.20;99.90
10247;DHT22;5168;47.854;7.944;2023-05-01T11:35:20;11.30;99.90
10247;DHT22;5168;47.854;7.944;2023-05-01T11:37:46;11.70;99.90
10247;DHT22;5168;47.854;7.944;2023-05-01T11:42:45;11.80;99.90
10247;DHT22;5168;47.854;7.944;2023-05-01T11:47:38;11.10;99.90
10247;DHT22;5168;47.854;7.944;2023-05-01T11:50:07;11.10;99.90
10247;DHT22;5168;47.854;7.944;2023-05-01T11:52:50;11.70;99.90
10247;DHT22;5168;47.854;7.944;2023-05-01T11:55:33;11.40;99.90
10247;DHT22;5168;47.854;7.944;2023-05-01T11:57:58;11.70;99.90
10247;DHT22;5168;47.854;7.944;2023-05-01T12:02:58;12.00;99.90
10247;DHT22;5168;47.854;7.944;2023-05-01T12:05:25;12.40;99.90
10247;DHT22;5168;47.854;7.944;2023-05-01T12:08:11;12.10;99.90
10247;DHT22;5168;47.854;7.944;2023-05-01T12:10:38;12.40;99.90
10247;DHT22;5168;47.854;7.944;2023-05-01T12:13:05;12.50;99.90
10247;DHT22;5168;47.854;7.944;2023-05-01T12:15:34;13.20;99.90
10247;DHT22;5168;47.854;7.944;2023-05-01T12:18:01;14.00;99.90
10247;DHT22;5168;47.854;7.944;2023-05-01T12:20:34;13.90;99.90
10247;DHT22;5168;47.854;7.944;2023-05-01T12:23:01;14.20;99.90
10247;DHT22;5168;47.854;7.944;2023-05-01T12:25:31;14.50;99.90
10247;DHT22;5168;47.854;7.944;2023-05-01T12:27:59;14.70;99.90
10247;DHT22;5168;47.854;7.944;2023-05-01T12:30:26;14.60;99.90
10247;DHT22;5168;47.854;7.944;2023-05-01T12:32:52;15.40;99.90
10247;DHT22;5168;47.854;7.944;2023-05-01T12:40:13;15.00;99.90
10247;DHT22;5168;47.854;7.944;2023-05-01T12:42:39;14.90;99.90
10247;DHT22;5168;47.854;7.944;2023-05-01T12:45:05;14.30;99.90
10247;DHT22;5168;47.854;7.944;2023-05-01T12:47:36;14.20;99.90
10247;DHT22;5168;47.854;7.944;2023-05-01T12:52:28;14.00;99.90
10247;DHT22;5168;47.854;7.944;2023-05-01T12:55:01;13.40;99.90
10247;DHT22;5168;47.854;7.944;2023-05-01T12:57:27;12.80;99.90
10247;DHT22;5168;47.854;7.944;2023-05-01T12:59:58;12.60;99.90
10247;DHT22;5168;47.854;7.944;2023-05-01T13:02:31;12.60;99.90
10247;DHT22;5168;47.854;7.944;2023-05-01T13:05:08;12.10;99.90
10247;DHT22;5168;47.854;7.944;2023-05-01T13:07:35;12.70;99.90
10247;DHT22;5168;47.854;7.944;2023-05-01T13:10:01;12.60;99.90
10247;DHT22;5168;47.854;7.944;2023-05-01T13:12:29;12.30;99.90
10247;DHT22;5168;47.854;7.944;2023-05-01T13:14:55;12.00;99.90
10247;DHT22;5168;47.854;7.944;2023-05-01T13:17:23;12.10;99.90
10247;DHT22;5168;47.854;7.944;2023-05-01T13:19:57;11.30;99.90
10247;DHT22;5168;47.854;7.944;2023-05-01T13:22:50;11.40;99.90
10247;DHT22;5168;47.854;7.944;2023-05-01T13:25:17;11.40;99.90
10247;DHT22;5168;47.854;7.944;2023-05-01T13:27:51;11.20;99.90
10247;DHT22;5168;47.854;7.944;2023-05-01T13:30:20;11.90;99.90
10247;DHT22;5168;47.854;7.944;2023-05-01T13:32:48;11.70;99.90
10247;DHT22;5168;47.854;7.944;2023-05-01T13:35:24;12.00;99.90
10247;DHT22;5168;47.854;7.944;2023-05-01T13:37:50;12.60;99.90
10247;DHT22;5168;47.854;7.944;2023-05-01T13:40:17;12.60;99.90
10247;DHT22;5168;47.854;7.944;2023-05-01T13:42:43;12.60;99.90
10247;DHT22;5168;47.854;7.944;2023-05-01T13:45:09;13.00;99.90
10247;DHT22;5168;47.854;7.944;2023-05-01T13:47:38;13.60;99.90
10247;DHT22;5168;47.854;7.944;2023-05-01T13:50:09;13.40;99.90
10247;DHT22;5168;47.854;7.944;2023-05-01T13:52:41;12.90;99.90
10247;DHT22;5168;47.854;7.944;2023-05-01T13:55:10;12.90;99.90
10247;DHT22;5168;47.854;7.944;2023-05-01T13:57:37;12.90;99.90
10247;DHT22;5168;47.854;7.944;2023-05-01T14:00:05;12.60;99.90
10247;DHT22;5168;47.854;7.944;2023-05-01T14:04:58;12.60;99.90
10247;DHT22;5168;47.854;7.944;2023-05-01T14:07:24;12.30;99.90
10247;DHT22;5168;47.854;7.944;2023-05-01T14:09:55;12.30;99.90
10247;DHT22;5168;47.854;7.944;2023-05-01T14:12:29;12.30;99.90
10247;DHT22;5168;47.854;7.944;2023-05-01T14:14:55;12.00;99.90
10247;DHT22;5168;47.854;7.944;2023-05-01T14:17:32;12.30;99.90
10247;DHT22;5168;47.854;7.944;2023-05-01T14:19:58;12.00;99.90
10247;DHT22;5168;47.854;7.944;2023-05-01T14:22:28;11.90;99.90
10247;DHT22;5168;47.854;7.944;2023-05-01T14:24:54;12.40;99.90
10247;DHT22;5168;47.854;7.944;2023-05-01T14:27:20;12.70;99.90
10247;DHT22;5168;47.854;7.944;2023-05-01T14:29:47;12.30;99.90
10247;DHT22;5168;47.854;7.944;2023-05-01T14:32:14;12.40;99.90
10247;DHT22;5168;47.854;7.944;2023-05-01T14:34:41;12.70;99.90
10247;DHT22;5168;47.854;7.944;2023-05-01T14:37:08;14.50;99.90
10247;DHT22;5168;47.854;7.944;2023-05-01T14:39:34;13.20;99.90
10247;DHT22;5168;47.854;7.944;2023-05-01T14:42:00;13.00;99.90
10247;DHT22;5168;47.854;7.944;2023-05-01T14:44:26;13.50;99.90
10247;DHT22;5168;47.854;7.944;2023-05-01T14:49:24;12.70;99.90
10247;DHT22;5168;47.854;7.944;2023-05-01T14:51:51;12.30;99.90
10247;DHT22;5168;47.854;7.944;2023-05-01T14:54:17;12.30;99.90
10247;DHT22;5168;47.854;7.944;2023-05-01T14:56:44;12.50;99.90
10247;DHT22;5168;47.854;7.944;2023-05-01T14:59:10;12.40;99.90
10247;DHT22;5168;47.854;7.944;2023-05-01T15:01:37;12.30;99.90
10247;DHT22;5168;47.854;7.944;2023-05-01T15:04:02;12.60;99.90
10247;DHT22;5168;47.854;7.944;2023-05-01T15:11:22;12.70;99.90
10247;DHT22;5168;47.854;7.944;2023-05-01T15:18:41;12.40;99.90
10247;DHT22;5168;47.854;7.944;2023-05-01T15:21:06;13.10;99.90
10247;DHT22;5168;47.854;7.944;2023-05-01T15:23:32;12.60;99.90
10247;DHT22;5168;47.854;7.944;2023-05-01T15:25:57;12.90;99.90
10247;DHT22;5168;47.854;7.944;2023-05-01T15:28:23;12.70;99.90
10247;DHT22;5168;47.854;7.944;2023-05-01T15:30:51;13.10;99.90
10247;DHT22;5168;47.854;7.944;2023-05-01T15:33:17;12.80;99.90
10247;DHT22;5168;47.854;7.944;2023-05-01T15:35:43;13.10;99.90
10247;DHT22;5168;47.854;7.944;2023-05-01T15:40:36;13.00;99.90
10247;DHT22;5168;47.854;7.944;2023-05-01T15:43:03;13.10;99.90
10247;DHT22;5168;47.854;7.944;2023-05-01T15:45:30;12.80;99.90
10247;DHT22;5168;47.854;7.944;2023-05-01T15:50:21;12.90;99.90
10247;DHT22;5168;47.854;7.944;2023-05-01T15:52:49;13.20;99.90
10247;DHT22;5168;47.854;7.944;2023-05-01T15:57:44;13.40;99.90
10247;DHT22;5168;47.854;7.944;2023-05-01T16:00:11;13.50;99.90
10247;DHT22;5168;47.854;7.944;2023-05-01T16:07:32;12.90;99.90
10247;DHT22;5168;47.854;7.944;2023-05-01T16:09:58;12.80;99.90
10247;DHT22;5168;47.854;7.944;2023-05-01T16:12:26;12.60;99.90
10247;DHT22;5168;47.854;7.944;2023-05-01T16:19:45;12.60;99.90
10247;DHT22;5168;47.854;7.944;2023-05-01T16:22:12;13.10;99.90
10247;DHT22;5168;47.854;7.944;2023-05-01T16:24:38;13.00;99.90
10247;DHT22;5168;47.854;7.944;2023-05-01T16:29:33;12.40;99.90
10247;DHT22;5168;47.854;7.944;2023-05-01T16:31:59;12.40;99.90
10247;DHT22;5168;47.854;7.944;2023-05-01T16:34:26;12.60;99.90
10247;DHT22;5168;47.854;7.944;2023-05-01T16:39:19;12.70;99.90
10247;DHT22;5168;47.854;7.944;2023-05-01T16:41:54;12.00;99.90
10247;DHT22;5168;47.854;7.944;2023-05-01T16:44:21;12.20;99.90
10247;DHT22;5168;47.854;7.944;2023-05-01T16:46:51;11.90;99.90
10247;DHT22;5168;47.854;7.944;2023-05-01T16:49:24;11.60;99.90
10247;DHT22;5168;47.854;7.944;2023-05-01T16:51:51;11.70;99.90
10247;DHT22;5168;47.854;7.944;2023-05-01T16:54:20;11.90;99.90
10247;DHT22;5168;47.854;7.944;2023-05-01T17:04:05;11.50;99.90
10247;DHT22;5168;47.854;7.944;2023-05-01T17:06:31;12.10;99.90
10247;DHT22;5168;47.854;7.944;2023-05-01T17:11:22;11.90;99.90
10247;DHT22;5168;47.854;7.944;2023-05-01T17:13:49;11.50;99.90
10247;DHT22;5168;47.854;7.944;2023-05-01T17:16:15;11.60;99.90
10247;DHT22;5168;47.854;7.944;2023-05-01T17:18:40;11.50;99.90
10247;DHT22;5168;47.854;7.944;2023-05-01T17:21:06;11.40;99.90
10247;DHT22;5168;47.854;7.944;2023-05-01T17:23:33;11.20;99.90
10247;DHT22;5168;47.854;7.944;2023-05-01T17:25:59;11.50;99.90
10247;DHT22;5168;47.854;7.944;2023-05-01T17:28:25;11.50;99.90
10247;DHT22;5168;47.854;7.944;2023-05-01T17:30:50;11.00;99.90
10247;DHT22;5168;47.854;7.944;2023-05-01T17:38:08;10.90;99.90
10247;DHT22;5168;47.854;7.944;2023-05-01T17:40:34;10.90;99.90
10247;DHT22;5168;47.854;7.944;2023-05-01T17:42:59;10.60;99.90
10247;DHT22;5168;47.854;7.944;2023-05-01T17:47:51;10.80;99.90
10247;DHT22;5168;47.854;7.944;2023-05-01T17:55:11;10.40;99.90
10247;DHT22;5168;47.854;7.944;2023-05-01T17:57:40;10.50;99.90
10247;DHT22;5168;47.854;7.944;2023-05-01T18:00:07;10.20;99.90
10247;DHT22;5168;47.854;7.944;2023-05-01T18:02:33;10.50;99.90
10247;DHT22;5168;47.854;7.944;2023-05-01T18:04:59;10.70;99.90
10247;DHT22;5168;47.854;7.944;2023-05-01T18:07:25;10.00;99.90
10247;DHT22;5168;47.854;7.944;2023-05-01T18:09:51;10.00;99.90
10247;DHT22;5168;47.854;7.944;2023-05-01T18:17:08;9.30;99.90
10247;DHT22;5168;47.854;7.944;2023-05-01T18:19:34;9.80;99.90
10247;DHT22;5168;47.854;7.944;2023-05-01T18:21:59;10.20;99.90
10247;DHT22;5168;47.854;7.944;2023-05-01T18:31:43;9.60;99.90
10247;DHT22;5168;47.854;7.944;2023-05-01T18:34:08;9.50;99.90
10247;DHT22;5168;47.854;7.944;2023-05-01T18:36:36;10.00;99.90
10247;DHT22;5168;47.854;7.944;2023-05-01T18:41:27;9.80;99.90
10247;DHT22;5168;47.854;7.944;2023-05-01T18:43:53;9.60;99.90
10247;DHT22;5168;47.854;7.944;2023-05-01T18:48:45;9.50;99.90
10247;DHT22;5168;47.854;7.944;2023-05-01T18:53:38;9.40;99.90
10247;DHT22;5168;47.854;7.944;2023-05-01T18:56:04;9.10;99.90
10247;DHT22;5168;47.854;7.944;2023-05-01T18:58:30;8.90;99.90
10247;DHT22;5168;47.854;7.944;2023-05-01T19:00:55;9.70;99.90
10247;DHT22;5168;47.854;7.944;2023-05-01T19:10:39;9.30;99.90
10247;DHT22;5168;47.854;7.944;2023-05-01T19:13:06;9.20;99.90
10247;DHT22;5168;47.854;7.944;2023-05-01T19:15:32;9.30;99.90
10247;DHT22;5168;47.854;7.944;2023-05-01T19:20:23;8.70;99.90
10247;DHT22;5168;47.854;7.944;2023-05-01T19:22:49;9.30;99.90
10247;DHT22;5168;47.854;7.944;2023-05-01T19:25:14;9.00;99.90
10247;DHT22;5168;47.854;7.944;2023-05-01T19:27:40;8.90;99.90
10247;DHT22;5168;47.854;7.944;2023-05-01T19:37:25;8.80;99.90
10247;DHT22;5168;47.854;7.944;2023-05-01T19:39:51;8.70;99.90
10247;DHT22;5168;47.854;7.944;2023-05-01T19:42:17;9.10;99.90
10247;DHT22;5168;47.854;7.944;2023-05-01T19:47:08;8.90;99.90
10247;DHT22;5168;47.854;7.944;2023-05-01T19:49:34;9.10;99.90
10247;DHT22;5168;47.854;7.944;2023-05-01T19:51:59;8.70;99.90
10247;DHT22;5168;47.854;7.944;2023-05-01T19:59:18;8.60;99.90
10247;DHT22;5168;47.854;7.944;2023-05-01T20:09:02;8.60;99.90
10247;DHT22;5168;47.854;7.944;2023-05-01T20:13:54;8.60;99.90
10247;DHT22;5168;47.854;7.944;2023-05-01T20:16:19;8.10;99.90
10247;DHT22;5168;47.854;7.944;2023-05-01T20:18:45;8.30;99.90
10247;DHT22;5168;47.854;7.944;2023-05-01T20:21:11;8.30;99.90
10247;DHT22;5168;47.854;7.944;2023-05-01T20:23:36;8.70;99.90
10247;DHT22;5168;47.854;7.944;2023-05-01T20:26:02;7.80;99.90
10247;DHT22;5168;47.854;7.944;2023-05-01T20:28:28;8.20;99.90
10247;DHT22;5168;47.854;7.944;2023-05-01T20:30:54;7.90;99.90
10247;DHT22;5168;47.854;7.944;2023-05-01T20:33:20;8.10;99.90
10247;DHT22;5168;47.854;7.944;2023-05-01T20:35:46;8.20;99.90
10247;DHT22;5168;47.854;7.944;2023-05-01T20:43:06;8.40;99.90
10247;DHT22;5168;47.854;7.944;2023-05-01T20:45:33;7.80;99.90
10247;DHT22;5168;47.854;7.944;2023-05-01T20:47:59;8.20;99.90
10247;DHT22;5168;47.854;7.944;2023-05-01T20:50:25;7.90;99.90
10247;DHT22;5168;47.854;7.944;2023-05-01T20:52:52;7.80;99.90
10247;DHT22;5168;47.854;7.944;2023-05-01T20:55:19;8.10;99.90
10247;DHT22;5168;47.854;7.944;2023-05-01T20:57:45;8.00;99.90
10247;DHT22;5168;47.854;7.944;2023-05-01T21:02:37;7.90;99.90
10247;DHT22;5168;47.854;7.944;2023-05-01T21:05:04;8.00;99.90
10247;DHT22;5168;47.854;7.944;2023-05-01T21:07:30;7.90;99.90
10247;DHT22;5168;47.854;7.944;2023-05-01T21:09:55;7.80;99.90
10247;DHT22;5168;47.854;7.944;2023-05-01T21:17:14;7.90;99.90
10247;DHT22;5168;47.854;7.944;2023-05-01T21:19:44;8.00;99.90
10247;DHT22;5168;47.854;7.944;2023-05-01T21:22:14;8.00;99.90
10247;DHT22;5168;47.854;7.944;2023-05-01T21:24:42;8.00;99.90
10247;DHT22;5168;47.854;7.944;2023-05-01T21:27:09;8.00;99.90
10247;DHT22;5168;47.854;7.944;2023-05-01T21:32:00;7.80;99.90
10247;DHT22;5168;47.854;7.944;2023-05-01T21:36:54;7.70;99.90
10247;DHT22;5168;47.854;7.944;2023-05-01T21:39:20;7.80;99.90
10247;DHT22;5168;47.854;7.944;2023-05-01T21:41:49;7.20;99.90